Ana Sayfa
METAR-TAF:

METAR-TAF

Havaalanları :

Midilli, Yunanistan

Enlem: 39-04N, Boylam: 026-36E, yükseklik: 3 m

Güncel hava durumu gözlemi

Rapor saat 07:20 UTC de 17 dakika önce yapıldı.
Rüzgar kuzeybatıdan 5 kt
Sıcaklık 10°C
Nem 82%
Basınç 1021 hPa
Görüş mesafesi 10 km veya daha fazla
1500 m altında bulut yok ve kümülonimbus yok

METAR: LGMT 250720Z 32005KT CAVOK 10/07 Q1021

Saat: 09:37 (07:37 UTC)

Tahmin

Rapor saat 05:00 UTC de 2 saat ve 37 dakika önce yapıldı.
Ayın 25'si saat 06 UTC'den ayın 25'si saat 15 UTC'ye kadar geçerli Tahmin
Rüzgar değişken yönden 5 kt
Görüş mesafesi 10 km veya daha fazla
2500 ft yükseklikte az bulutlu

TAF: LGMT 250500Z 2506/2515 VRB05KT 9999 FEW025

4.000'den fazla havaalanı için hava durumu gözlemleri ve tahminleri (METAR ve TAF raporları).

Kullanılabilir istasyonlar harita üzerinde sarı ve kırmızı noktalarla gösterilir.

İstasyonun adını görmek için fareyi noktanın üzerinde gezdirin.

Sonrasında hava gözlem ve tahminlerini görmek için tıklayın.

Haritayı değiştirmek için: yaklaştırmak için siyah artı işaretli yeşil düğmeye ve uzaklaştırmak için de eksi işaretli düğmeye hızla tıklayın; bitişik haritalar için yeşil okları kullanın.


METAR-TAF: